WetterOnline ( http://www.wetteronline.de )

Wetter aktuell Frontone

Aktuelles Wetter: Frontone (574m)

6-stündlich | Neueste Meldungen
Ortszeit Temperatur Wetter
Mo, 23.04. 14:00 24.2° C fast wolkenlos
Mo, 23.04. 8:00 16.6° C wolkenlos
Mo, 23.04. 2:00 16.6° C wolkenlos
So, 22.04. 20:00 18.8° C wolkenlos
So, 22.04. 14:00 22.8° C fast wolkenlos
So, 22.04. 8:00 15.0° C wolkenlos
So, 22.04. 2:00 13.8° C wolkenlos
Sa, 21.04. 20:00 17.4° C wolkenlos
Ortszeit Temperatur Wetter
Mo, 23.04. 17:00 26.4° C leicht bewölkt
Mo, 23.04. 16:55 26° C leicht bewölkt
Mo, 23.04. 16:00 26.4° C leicht bewölkt
Mo, 23.04. 15:55 26° C leicht bewölkt
Mo, 23.04. 15:00 24.4° C leicht bewölkt
Mo, 23.04. 14:55 24° C leicht bewölkt
Mo, 23.04. 14:00 24.2° C fast wolkenlos
Mo, 23.04. 13:55 24° C leicht bewölkt
Mo, 23.04. 13:00 23.6° C fast wolkenlos
Ortszeit Relative Feuchte Sichtweite
Mo, 23.04. 14:00 30% 40 km
Mo, 23.04. 8:00 56% 40 km
Mo, 23.04. 2:00 57% 30 km
So, 22.04. 20:00 57% 40 km
So, 22.04. 14:00 42% 40 km
So, 22.04. 8:00 60% 40 km
So, 22.04. 2:00 55% 40 km
Sa, 21.04. 20:00 46% 40 km
Ortszeit Relative Feuchte Sichtweite
Mo, 23.04. 17:00 38% 40 km
Mo, 23.04. 16:55 39% >10 km
Mo, 23.04. 16:00 28% 40 km
Mo, 23.04. 15:55 28% >10 km
Mo, 23.04. 15:00 29% 40 km
Mo, 23.04. 14:55 29% >10 km
Mo, 23.04. 14:00 30% 40 km
Mo, 23.04. 13:55 31% >10 km
Mo, 23.04. 13:00 33% 40 km
Ortszeit Niederschlagsmenge Niederschlagsart
Mo, 23.04. 14:00 0.0 l/m2 in 6 Std. -
Mo, 23.04. 8:00 0.0 l/m2 in 12 Std. -
Mo, 23.04. 2:00 0.0 l/m2 in 6 Std. -
So, 22.04. 20:00 0.0 l/m2 in 12 Std. -
So, 22.04. 14:00 0.0 l/m2 in 6 Std. -
So, 22.04. 8:00 0.0 l/m2 in 12 Std. -
So, 22.04. 2:00 0.0 l/m2 in 6 Std. -
Sa, 21.04. 20:00 0.0 l/m2 in 12 Std. -
Ortszeit Niederschlagsmenge Niederschlagsart
Mo, 23.04. 17:00 keine Meldung -
Mo, 23.04. 16:55 keine Meldung -
Mo, 23.04. 16:00 keine Meldung -
Mo, 23.04. 15:55 keine Meldung -
Mo, 23.04. 15:00 keine Meldung -
Mo, 23.04. 14:55 keine Meldung -
Mo, 23.04. 14:00 keine Meldung -
Mo, 23.04. 13:55 keine Meldung -
Mo, 23.04. 13:00 keine Meldung -
Ortszeit Stärke Spitze Richtung
km/h Bft. km/h Grad Sektor
Mo, 23.04. 14:00 6 1 - 10° N
Mo, 23.04. 8:00 0 0 - - -
Mo, 23.04. 2:00 4 1 - 330° NW
So, 22.04. 20:00 6 1 - 90° O
So, 22.04. 14:00 6 1 - 60° NO
So, 22.04. 8:00 4 1 - 250° W
So, 22.04. 2:00 0 0 - - -
Sa, 21.04. 20:00 7 2 - 120° SO
Ortszeit Stärke Spitze Richtung
km/h Bft. km/h Grad Sektor
Mo, 23.04. 17:00 7 2 - 70° O
Mo, 23.04. 16:55 7 2 - 70° O
Mo, 23.04. 16:00 11 2 - 240° SW
Mo, 23.04. 15:55 11 2 - 240° SW
Mo, 23.04. 15:00 11 2 - 270° W
Mo, 23.04. 14:55 11 2 - 270° W
Mo, 23.04. 14:00 6 1 - 10° N
Mo, 23.04. 13:55 6 1 - 10° N
Mo, 23.04. 13:00 7 2 - 340° N
Ortszeit Untergrenze Bedeckung Gattung
total tief tief mittel hoch
Mo, 23.04. 14:00 960 m 2/8 1/8 Cu - Ci
Mo, 23.04. 8:00 - 0/8 0/8 - - -
Mo, 23.04. 2:00 - 0/8 0/8 - - -
So, 22.04. 20:00 - 0/8 0/8 - - -
So, 22.04. 14:00 900 m 1/8 1/8 Cu - -
So, 22.04. 8:00 - 0/8 0/8 - - -
So, 22.04. 2:00 - 0/8 0/8 - - -
Sa, 21.04. 20:00 - 0/8 0/8 - - -
Ortszeit Bedeckungsgrad in Achtel und Wolkenuntergrenze
Mo, 23.04. 17:00 2(960m)
Mo, 23.04. 16:55 1-2(960m)
Mo, 23.04. 16:00 2(960m)
Mo, 23.04. 15:55 1-2(960m)
Mo, 23.04. 15:00 2(930m)
Mo, 23.04. 14:55 1-2(930m)
Mo, 23.04. 14:00 1(960m)
Mo, 23.04. 13:55 1-2(960m)
Mo, 23.04. 13:00 1(960m)
Ortszeit Stationsdruck (hPa) Tendenz (hPa in 3 Std.)
Mo, 23.04. 14:00 951 - 0,1
Mo, 23.04. 8:00 951 + 0,3
Mo, 23.04. 2:00 951 0,0
So, 22.04. 20:00 950 0,0
So, 22.04. 14:00 951 - 0,2
So, 22.04. 8:00 951 - 0,1
So, 22.04. 2:00 952 0,0
Sa, 21.04. 20:00 951 - 0,7
Ortszeit Stationsdruck (hPa) Tendenz (hPa in 3 Std.)
Mo, 23.04. 17:00 950 - 1,0
Mo, 23.04. 16:55 - keine Meldung
Mo, 23.04. 16:00 950 - 0,8
Mo, 23.04. 15:55 - keine Meldung
Mo, 23.04. 15:00 950 - 0,6
Mo, 23.04. 14:55 - keine Meldung
Mo, 23.04. 14:00 951 - 0,1
Mo, 23.04. 13:55 - keine Meldung
Mo, 23.04. 13:00 951 + 0,2
Ortszeit Schneehöhe (cm)
Mo, 23.04. 14:00 -
Mo, 23.04. 8:00 0
Mo, 23.04. 2:00 -
So, 22.04. 20:00 -
So, 22.04. 14:00 -
So, 22.04. 8:00 0
So, 22.04. 2:00 -
Sa, 21.04. 20:00 -
Ortszeit Schneehöhe (cm)
Mo, 23.04. 17:00 -
Mo, 23.04. 16:55 -
Mo, 23.04. 16:00 -
Mo, 23.04. 15:55 -
Mo, 23.04. 15:00 -
Mo, 23.04. 14:55 -
Mo, 23.04. 14:00 -
Mo, 23.04. 13:55 -
Mo, 23.04. 13:00 -
Link zu dieser Seite / Seite empfehlen

Das Wetter in ...